Time,TemperatureF,DewpointF,PressureIn,WindDirection,WindDirectionDegrees,WindSpeedMPH,WindSpeedGustMPH,Humidity,HourlyPrecipIn,Conditions,Clouds,dailyrainin,SoftwareType,DateUTC
2013-03-06 00:04:00,28.8,26.0,29.25,North,6,5.0,10.0,89,0.00,,,0.00,weatherlink.com 1.10,2013-03-06 05:04:00,
2013-03-06 00:19:00,29.0,26.0,29.25,NNE,25,4.0,10.0,89,0.00,,,0.00,weatherlink.com 1.10,2013-03-06 05:19:00,
2013-03-06 00:34:00,29.2,26.0,29.25,NNE,23,4.0,9.0,89,0.00,,,0.00,weatherlink.com 1.10,2013-03-06 05:34:00,
2013-03-06 00:49:00,29.3,26.0,29.26,North,1,7.0,7.0,88,0.00,,,0.00,weatherlink.com 1.10,2013-03-06 05:49:00,
2013-03-06 01:05:00,29.4,26.0,29.25,NE,49,2.0,8.0,88,0.00,,,0.00,weatherlink.com 1.10,2013-03-06 06:05:00,
2013-03-06 01:19:00,29.7,27.0,29.25,NE,53,2.0,8.0,88,0.00,,,0.00,weatherlink.com 1.10,2013-03-06 06:19:00,
2013-03-06 01:35:00,30.0,27.0,29.26,NNE,30,8.0,8.0,87,0.00,,,0.00,weatherlink.com 1.10,2013-03-06 06:35:00,
2013-03-06 01:50:00,30.8,27.0,29.26,East,85,6.0,13.0,85,0.00,,,0.00,weatherlink.com 1.10,2013-03-06 06:50:00,
2013-03-06 02:05:00,30.9,26.0,29.26,North,11,7.0,14.0,83,0.00,,,0.00,weatherlink.com 1.10,2013-03-06 07:05:00,
2013-03-06 02:20:00,30.8,26.0,29.27,NE,56,11.0,15.0,83,0.00,,,0.00,weatherlink.com 1.10,2013-03-06 07:20:00,
2013-03-06 02:35:00,30.5,26.0,29.27,NNE,29,5.0,9.0,84,0.00,,,0.00,weatherlink.com 1.10,2013-03-06 07:35:00,
2013-03-06 02:50:00,30.0,26.0,29.27,NW,325,2.0,9.0,85,0.00,,,0.00,weatherlink.com 1.10,2013-03-06 07:50:00,
2013-03-06 03:05:00,29.6,26.0,29.27,NE,54,7.0,11.0,85,0.00,,,0.00,weatherlink.com 1.10,2013-03-06 08:05:00,
2013-03-06 03:20:00,29.1,25.0,29.27,ENE,61,5.0,10.0,86,0.00,,,0.00,weatherlink.com 1.10,2013-03-06 08:20:00,
2013-03-06 03:35:00,28.6,25.0,29.28,NE,43,4.0,9.0,87,0.00,,,0.00,weatherlink.com 1.10,2013-03-06 08:35:00,
2013-03-06 03:50:00,28.5,25.0,29.28,NE,34,4.0,10.0,87,0.00,,,0.00,weatherlink.com 1.10,2013-03-06 08:50:00,
2013-03-06 04:05:00,28.4,25.0,29.29,ENE,70,3.0,9.0,87,0.00,,,0.00,weatherlink.com 1.10,2013-03-06 09:05:00,
2013-03-06 04:20:00,28.6,25.0,29.30,NNE,30,4.0,9.0,87,0.00,,,0.00,weatherlink.com 1.10,2013-03-06 09:20:00,
2013-03-06 04:35:00,28.6,25.0,29.30,ENE,71,4.0,12.0,87,0.00,,,0.00,weatherlink.com 1.10,2013-03-06 09:35:00,
2013-03-06 04:50:00,28.7,25.0,29.30,NNE,26,5.0,8.0,87,0.00,,,0.00,weatherlink.com 1.10,2013-03-06 09:50:00,
2013-03-06 05:05:00,28.5,25.0,29.31,NE,47,2.0,10.0,87,0.00,,,0.00,weatherlink.com 1.10,2013-03-06 10:05:00,
2013-03-06 05:20:00,28.3,25.0,29.31,East,92,2.0,6.0,88,0.00,,,0.00,weatherlink.com 1.10,2013-03-06 10:20:00,
2013-03-06 05:35:00,28.3,25.0,29.32,East,95,2.0,7.0,88,0.00,,,0.00,weatherlink.com 1.10,2013-03-06 10:35:00,
2013-03-06 05:50:00,28.1,25.0,29.32,NNE,27,2.0,5.0,89,0.00,,,0.00,weatherlink.com 1.10,2013-03-06 10:50:00,
2013-03-06 06:05:00,27.9,25.0,29.33,NNE,33,3.0,5.0,89,0.00,,,0.00,weatherlink.com 1.10,2013-03-06 11:05:00,
2013-03-06 06:20:00,27.7,25.0,29.33,NNE,23,2.0,4.0,90,0.00,,,0.00,weatherlink.com 1.10,2013-03-06 11:20:00,
2013-03-06 06:35:00,27.7,26.0,29.34,NE,39,1.0,6.0,91,0.00,,,0.00,weatherlink.com 1.10,2013-03-06 11:35:00,
2013-03-06 06:50:00,27.6,25.0,29.35,NNE,25,2.0,4.0,91,0.00,,,0.00,weatherlink.com 1.10,2013-03-06 11:50:00,
2013-03-06 07:05:00,27.6,25.0,29.36,ENE,64,2.0,5.0,91,0.00,,,0.00,weatherlink.com 1.10,2013-03-06 12:05:00,
2013-03-06 07:20:00,27.3,25.0,29.37,North,6,2.0,3.0,91,0.00,,,0.00,weatherlink.com 1.10,2013-03-06 12:20:00,
2013-03-06 07:35:00,27.6,26.0,29.38,NE,34,2.0,4.0,92,0.00,,,0.00,weatherlink.com 1.10,2013-03-06 12:35:00,
2013-03-06 07:50:00,28.5,27.0,29.39,North,11,3.0,5.0,92,0.00,,,0.00,weatherlink.com 1.10,2013-03-06 12:50:00,
2013-03-06 08:05:00,29.5,27.0,29.40,North,356,3.0,6.0,91,0.00,,,0.00,weatherlink.com 1.10,2013-03-06 13:05:00,
2013-03-06 08:20:00,30.4,28.0,29.40,NNE,17,6.0,7.0,90,0.00,,,0.00,weatherlink.com 1.10,2013-03-06 13:20:00,
2013-03-06 08:36:00,31.3,29.0,29.41,NNE,27,4.0,8.0,89,0.00,,,0.00,weatherlink.com 1.10,2013-03-06 13:36:00,
2013-03-06 08:51:00,32.1,29.0,29.41,NNE,25,8.0,12.0,88,0.00,,,0.00,weatherlink.com 1.10,2013-03-06 13:51:00,
2013-03-06 09:06:00,32.7,29.0,29.42,North,6,8.0,10.0,87,0.00,,,0.00,weatherlink.com 1.10,2013-03-06 14:06:00,
2013-03-06 09:21:00,33.2,30.0,29.42,NE,52,5.0,11.0,87,0.00,,,0.00,weatherlink.com 1.10,2013-03-06 14:21:00,
2013-03-06 09:36:00,33.7,30.0,29.42,NNE,27,5.0,11.0,86,0.00,,,0.00,weatherlink.com 1.10,2013-03-06 14:36:00,
2013-03-06 09:51:00,34.2,30.0,29.42,NNE,23,3.0,12.0,84,0.00,,,0.00,weatherlink.com 1.10,2013-03-06 14:51:00,
2013-03-06 10:06:00,34.6,30.0,29.42,NE,39,5.0,13.0,84,0.00,,,0.00,weatherlink.com 1.10,2013-03-06 15:06:00,
2013-03-06 10:21:00,35.1,30.0,29.42,NNE,23,13.0,13.0,83,0.00,,,0.00,weatherlink.com 1.10,2013-03-06 15:21:00,
2013-03-06 10:36:00,35.1,30.0,29.42,NE,49,4.0,14.0,82,0.00,,,0.00,weatherlink.com 1.10,2013-03-06 15:36:00,
2013-03-06 10:51:00,35.5,30.0,29.42,NNE,16,5.0,14.0,81,0.00,,,0.00,weatherlink.com 1.10,2013-03-06 15:51:00,
2013-03-06 11:06:00,35.5,30.0,29.42,ENE,60,5.0,12.0,80,0.00,,,0.00,weatherlink.com 1.10,2013-03-06 16:06:00,
2013-03-06 11:21:00,35.9,30.0,29.43,NNE,27,6.0,14.0,80,0.00,,,0.00,weatherlink.com 1.10,2013-03-06 16:21:00,
2013-03-06 11:36:00,35.9,30.0,29.44,ENE,57,6.0,13.0,80,0.00,,,0.00,weatherlink.com 1.10,2013-03-06 16:36:00,
2013-03-06 11:51:00,35.6,30.0,29.45,North,353,8.0,14.0,80,0.00,,,0.00,weatherlink.com 1.10,2013-03-06 16:51:00,
2013-03-06 12:06:00,36.1,30.0,29.45,NE,46,5.0,15.0,78,0.00,,,0.00,weatherlink.com 1.10,2013-03-06 17:06:00,
2013-03-06 12:21:00,36.4,30.0,29.45,ENE,67,9.0,11.0,79,0.00,,,0.00,weatherlink.com 1.10,2013-03-06 17:21:00,
2013-03-06 12:36:00,36.0,30.0,29.46,NE,43,4.0,13.0,78,0.00,,,0.00,weatherlink.com 1.10,2013-03-06 17:36:00,
2013-03-06 12:51:00,36.9,30.0,29.46,ENE,78,11.0,12.0,75,0.00,,,0.00,weatherlink.com 1.10,2013-03-06 17:51:00,
2013-03-06 13:07:00,37.6,30.0,29.45,NE,43,9.0,13.0,75,0.00,,,0.00,weatherlink.com 1.10,2013-03-06 18:07:00,
2013-03-06 13:21:00,38.1,30.0,29.45,ENE,68,6.0,9.0,73,0.00,,,0.00,weatherlink.com 1.10,2013-03-06 18:21:00,
2013-03-06 13:36:00,39.1,31.0,29.44,NNE,29,8.0,10.0,72,0.00,,,0.00,weatherlink.com 1.10,2013-03-06 18:36:00,
2013-03-06 13:51:00,39.1,31.0,29.44,East,101,4.0,11.0,73,0.00,,,0.00,weatherlink.com 1.10,2013-03-06 18:51:00,
2013-03-06 14:06:00,38.6,31.0,29.44,ESE,108,1.0,8.0,73,0.00,,,0.00,weatherlink.com 1.10,2013-03-06 19:06:00,
2013-03-06 14:21:00,38.5,31.0,29.44,East,98,2.0,7.0,73,0.00,,,0.00,weatherlink.com 1.10,2013-03-06 19:21:00,
2013-03-06 14:36:00,38.4,31.0,29.43,East,89,1.0,8.0,74,0.00,,,0.00,weatherlink.com 1.10,2013-03-06 19:36:00,
2013-03-06 14:51:00,38.9,31.0,29.43,ENE,74,2.0,7.0,74,0.00,,,0.00,weatherlink.com 1.10,2013-03-06 19:51:00,
2013-03-06 15:06:00,38.9,31.0,29.44,ENE,76,7.0,10.0,74,0.00,,,0.00,weatherlink.com 1.10,2013-03-06 20:06:00,
2013-03-06 15:21:00,38.6,30.0,29.44,East,94,3.0,7.0,72,0.00,,,0.00,weatherlink.com 1.10,2013-03-06 20:21:00,
2013-03-06 15:36:00,38.5,30.0,29.45,NE,47,3.0,9.0,72,0.00,,,0.00,weatherlink.com 1.10,2013-03-06 20:36:00,
2013-03-06 15:51:00,37.2,30.0,29.45,NE,44,4.0,8.0,74,0.00,,,0.00,weatherlink.com 1.10,2013-03-06 20:51:00,
2013-03-06 16:06:00,36.8,30.0,29.45,North,360,5.0,12.0,76,0.00,,,0.00,weatherlink.com 1.10,2013-03-06 21:06:00,
2013-03-06 16:21:00,36.8,30.0,29.45,NNE,26,4.0,8.0,77,0.00,,,0.00,weatherlink.com 1.10,2013-03-06 21:21:00,
2013-03-06 16:36:00,36.2,30.0,29.46,ENE,72,1.0,7.0,77,0.00,,,0.00,weatherlink.com 1.10,2013-03-06 21:36:00,
2013-03-06 16:51:00,36.2,30.0,29.46,ESE,108,3.0,6.0,78,0.00,,,0.00,weatherlink.com 1.10,2013-03-06 21:51:00,
2013-03-06 17:06:00,35.5,30.0,29.46,ESE,105,2.0,7.0,79,0.00,,,0.00,weatherlink.com 1.10,2013-03-06 22:06:00,
2013-03-06 17:22:00,35.2,30.0,29.47,East,83,2.0,4.0,80,0.00,,,0.00,weatherlink.com 1.10,2013-03-06 22:22:00,
2013-03-06 17:37:00,34.5,29.0,29.47,East,84,4.0,7.0,81,0.00,,,0.00,weatherlink.com 1.10,2013-03-06 22:37:00,
2013-03-06 17:52:00,34.1,29.0,29.47,ENE,76,4.0,6.0,82,0.00,,,0.00,weatherlink.com 1.10,2013-03-06 22:52:00,
2013-03-06 18:07:00,33.7,29.0,29.48,NE,43,2.0,4.0,83,0.00,,,0.00,weatherlink.com 1.10,2013-03-06 23:07:00,
2013-03-06 18:22:00,33.4,29.0,29.48,NE,36,2.0,6.0,84,0.00,,,0.00,weatherlink.com 1.10,2013-03-06 23:22:00,
2013-03-06 18:37:00,33.2,29.0,29.48,NNE,32,3.0,4.0,85,0.00,,,0.00,weatherlink.com 1.10,2013-03-06 23:37:00,
2013-03-06 18:52:00,32.9,29.0,29.49,East,96,1.0,3.0,86,0.00,,,0.00,weatherlink.com 1.10,2013-03-06 23:52:00,
2013-03-06 19:07:00,32.7,29.0,29.48,East,96,0.0,1.0,87,0.00,,,0.00,weatherlink.com 1.10,2013-03-07 00:07:00,
2013-03-06 19:22:00,32.6,29.0,29.48,NNE,23,3.0,3.0,87,0.00,,,0.00,weatherlink.com 1.10,2013-03-07 00:22:00,
2013-03-06 19:37:00,32.6,29.0,29.49,East,91,0.0,1.0,87,0.00,,,0.00,weatherlink.com 1.10,2013-03-07 00:37:00,
2013-03-06 19:52:00,32.6,29.0,29.48,SE,129,0.0,1.0,87,0.00,,,0.00,weatherlink.com 1.10,2013-03-07 00:52:00,
2013-03-06 20:07:00,32.5,29.0,29.49,SE,129,0.0,1.0,87,0.00,,,0.00,weatherlink.com 1.10,2013-03-07 01:07:00,
2013-03-06 20:22:00,32.5,29.0,29.49,SE,130,0.0,0.0,87,0.00,,,0.00,weatherlink.com 1.10,2013-03-07 01:22:00,
2013-03-06 20:37:00,32.4,29.0,29.49,SE,130,0.0,0.0,87,0.00,,,0.00,weatherlink.com 1.10,2013-03-07 01:37:00,
2013-03-06 20:52:00,32.3,29.0,29.50,SE,130,0.0,0.0,87,0.00,,,0.00,weatherlink.com 1.10,2013-03-07 01:52:00,
2013-03-06 21:07:00,32.4,29.0,29.50,SE,130,0.0,0.0,87,0.00,,,0.00,weatherlink.com 1.10,2013-03-07 02:07:00,
2013-03-06 21:22:00,32.3,29.0,29.50,SE,130,0.0,0.0,88,0.00,,,0.00,weatherlink.com 1.10,2013-03-07 02:22:00,
2013-03-06 21:37:00,32.1,29.0,29.50,SE,129,0.0,1.0,88,0.00,,,0.00,weatherlink.com 1.10,2013-03-07 02:37:00,
2013-03-06 21:52:00,32.0,29.0,29.51,SE,130,0.0,0.0,89,0.00,,,0.00,weatherlink.com 1.10,2013-03-07 02:52:00,
2013-03-06 22:07:00,32.1,29.0,29.51,SE,129,0.0,1.0,88,0.00,,,0.00,weatherlink.com 1.10,2013-03-07 03:07:00,
2013-03-06 22:22:00,32.0,29.0,29.51,SE,129,0.0,0.0,89,0.00,,,0.00,weatherlink.com 1.10,2013-03-07 03:22:00,
2013-03-06 22:39:00,32.0,29.0,29.51,SE,130,0.0,1.0,89,0.00,,,0.00,weatherlink.com 1.10,2013-03-07 03:39:00,
2013-03-06 22:52:00,32.1,29.0,29.51,SE,130,0.0,1.0,89,0.00,,,0.00,weatherlink.com 1.10,2013-03-07 03:52:00,
2013-03-06 23:07:00,32.0,29.0,29.51,SE,130,0.0,0.0,89,0.00,,,0.00,weatherlink.com 1.10,2013-03-07 04:07:00,
2013-03-06 23:22:00,32.1,30.0,29.51,SE,130,0.0,1.0,90,0.00,,,0.00,weatherlink.com 1.10,2013-03-07 04:22:00,
2013-03-06 23:37:00,32.4,30.0,29.50,SE,131,0.0,1.0,89,0.00,,,0.00,weatherlink.com 1.10,2013-03-07 04:37:00,
2013-03-06 23:52:00,32.4,30.0,29.50,SE,131,0.0,0.0,89,0.00,,,0.00,weatherlink.com 1.10,2013-03-07 04:52:00,